Weather reports worldwide

Advertisment
Edinburgh/Royal Botanic Garden , United Kingdom (99180): temperature & dewpoint: 04.07.2020 04:00:00 - 10.07.2020 04:00:00 (BST)Edinburgh/Royal Botanic Garden , United Kingdom (99180): temperature -20cm & temperature -100cm: 04.07.2020 04:00:00 - 10.07.2020 04:00:00 (BST)Edinburgh/Royal Botanic Garden , United Kingdom (99180): precipitation: 04.07.2020 04:00:00 - 10.07.2020 04:00:00 (BST)
Date & Time tt [°C] td [°C] tt -20cm [°C] tt -100cm [°C] rr [mm]
10.07.2020 04:00:00 10,8 10,1 - - 0,0
10.07.2020 03:00:00 11,0 10,3 - - 0,0
10.07.2020 02:00:00 11,6 10,9 - - 0,0
10.07.2020 01:00:00 11,3 10,8 - - 0,0
10.07.2020 00:00:00 10,8 10,1 - - 0,0
09.07.2020 23:00:00 11,3 10,5 - - 0,0
09.07.2020 22:00:00 11,8 10,8 - - 0,0
09.07.2020 21:00:00 12,5 11,4 - - 0,0
09.07.2020 20:00:00 12,7 11,6 - - 0,4
09.07.2020 19:00:00 12,5 11,2 - - 2,0
09.07.2020 18:00:00 13,1 11,3 - - 1,2
09.07.2020 17:00:00 14,7 9,3 - - 0,0
09.07.2020 16:00:00 18,0 10,4 - - 0,0
09.07.2020 15:00:00 17,7 9,8 - - 0,0
09.07.2020 14:00:00 16,8 8,7 - - 0,0
09.07.2020 13:00:00 17,2 9,8 - - 0,0
09.07.2020 12:00:00 16,1 8,1 - - 0,0
09.07.2020 11:00:00 15,8 9,7 - - 0,0
09.07.2020 10:00:00 15,2 8,6 16,5 14,2 0,0
09.07.2020 09:00:00 14,3 10,3 - - 0,0
09.07.2020 08:00:00 13,4 8,7 - - 0,0
09.07.2020 07:00:00 11,9 9,5 - - 0,0
09.07.2020 06:00:00 11,3 9,3 - - 0,0
09.07.2020 05:00:00 11,1 8,7 - - 0,0
09.07.2020 04:00:00 11,6 9,2 - - 0,0
09.07.2020 03:00:00 11,1 9,3 - - 0,0
09.07.2020 02:00:00 11,5 9,1 - - 0,0
09.07.2020 01:00:00 12,4 9,2 - - 0,0
09.07.2020 00:00:00 12,6 9,2 - - 0,0
08.07.2020 23:00:00 13,0 9,2 - - 0,0
08.07.2020 22:00:00 13,4 9,5 - - 0,0
08.07.2020 21:00:00 13,7 10,3 - - 0,0
08.07.2020 20:00:00 14,1 10,4 - - 0,0
08.07.2020 19:00:00 14,1 10,7 - - 0,2
08.07.2020 18:00:00 14,3 10,5 - - 0,0
08.07.2020 17:00:00 14,1 9,6 - - 0,0
08.07.2020 16:00:00 13,9 9,4 - - 0,0
08.07.2020 15:00:00 14,3 8,9 - - 0,0
08.07.2020 14:00:00 13,6 9,0 - - 0,0
08.07.2020 13:00:00 13,6 8,6 - - 0,0
08.07.2020 12:00:00 13,4 8,5 - - 0,0
08.07.2020 11:00:00 13,0 8,8 - - 0,0
08.07.2020 10:00:00 12,7 8,7 16,5 14,2 0,0
08.07.2020 09:00:00 11,6 8,8 - - 0,0
08.07.2020 08:00:00 10,9 8,9 - - 0,0
08.07.2020 07:00:00 10,5 9,2 - - 0,4
08.07.2020 06:00:00 10,5 9,1 - - 0,2
08.07.2020 05:00:00 11,1 8,9 - - 0,0
08.07.2020 04:00:00 11,1 9,7 - - 0,0
08.07.2020 03:00:00 11,7 10,1 - - 0,0
08.07.2020 02:00:00 12,0 9,3 - - 0,0
08.07.2020 01:00:00 12,0 10,6 - - 0,0
08.07.2020 00:00:00 12,1 10,4 - - 0,0
07.07.2020 23:00:00 12,5 10,1 - - 0,0
07.07.2020 22:00:00 12,6 10,2 - - 0,0
07.07.2020 21:00:00 14,2 9,0 - - 0,0
07.07.2020 20:00:00 15,2 8,9 - - 0,0
07.07.2020 19:00:00 16,7 8,3 - - 0,0
07.07.2020 18:00:00 16,9 7,3 - - 0,0
07.07.2020 17:00:00 15,9 8,4 - - 0,0
07.07.2020 16:00:00 16,8 8,3 - - 0,0
07.07.2020 15:00:00 15,9 9,0 - - 0,0
07.07.2020 14:00:00 15,8 8,8 - - 0,0
07.07.2020 13:00:00 15,2 8,6 - - 0,0
07.07.2020 12:00:00 14,0 8,2 - - 0,0
07.07.2020 11:00:00 13,7 9,2 - - 0,0
07.07.2020 10:00:00 12,7 8,5 16,2 14,2 0,0
07.07.2020 09:00:00 12,7 8,9 - - 0,0
07.07.2020 08:00:00 12,2 8,8 - - 0,0
07.07.2020 07:00:00 11,5 8,8 - - 0,0
07.07.2020 06:00:00 11,2 8,6 - - 0,0
07.07.2020 05:00:00 10,4 7,9 - - 0,0
07.07.2020 04:00:00 10,1 7,5 - - 0,0
07.07.2020 03:00:00 10,1 7,5 - - 0,0
07.07.2020 02:00:00 10,5 7,8 - - 0,0
07.07.2020 01:00:00 10,5 7,6 - - 0,0
07.07.2020 00:00:00 11,0 7,3 - - 0,0
06.07.2020 23:00:00 10,9 6,5 - - 0,0
06.07.2020 22:00:00 11,9 6,2 - - 0,0
06.07.2020 21:00:00 13,0 6,3 - - 0,0
06.07.2020 20:00:00 13,7 7,0 - - 0,0
06.07.2020 19:00:00 14,4 7,3 - - 0,0
06.07.2020 18:00:00 15,7 6,6 - - 0,0
06.07.2020 17:00:00 16,4 7,0 - - 0,0
06.07.2020 16:00:00 17,1 7,3 - - 0,0
06.07.2020 15:00:00 18,1 7,1 - - 0,0
06.07.2020 14:00:00 17,5 7,2 - - 0,0
06.07.2020 13:00:00 15,7 7,7 - - 0,0
06.07.2020 12:00:00 16,0 7,5 - - 0,0
06.07.2020 11:00:00 15,8 9,0 - - 0,0
06.07.2020 10:00:00 14,1 7,9 16,4 14,2 0,0
06.07.2020 09:00:00 15,3 8,8 - - 0,0
06.07.2020 08:00:00 14,2 9,1 - - 0,0
06.07.2020 07:00:00 11,7 8,9 - - 0,0
06.07.2020 06:00:00 10,5 9,1 - - 0,0
06.07.2020 05:00:00 10,0 8,5 - - 0,0
06.07.2020 04:00:00 10,4 8,6 - - 0,0
06.07.2020 03:00:00 10,9 7,9 - - 0,0
06.07.2020 02:00:00 11,4 7,9 - - 0,0
06.07.2020 01:00:00 11,0 7,8 - - 0,0
06.07.2020 00:00:00 11,2 7,9 - - 0,0
05.07.2020 23:00:00 11,2 8,0 - - 0,0
05.07.2020 22:00:00 11,6 7,9 - - 0,0
05.07.2020 21:00:00 12,3 8,8 - - 0,0
05.07.2020 20:00:00 13,0 8,8 - - 0,0
05.07.2020 19:00:00 12,1 9,7 - - 0,4
05.07.2020 18:00:00 13,4 9,3 - - 0,4
05.07.2020 17:00:00 13,8 8,1 - - 0,0
05.07.2020 16:00:00 14,5 9,2 - - 0,0
05.07.2020 15:00:00 14,0 9,1 - - 0,0
05.07.2020 14:00:00 15,7 10,3 - - 0,0
05.07.2020 13:00:00 12,6 10,4 - - 0,8
05.07.2020 12:00:00 14,8 9,9 - - 0,2
05.07.2020 11:00:00 15,1 7,4 - - 0,0
05.07.2020 10:00:00 14,3 8,7 16,2 14,2 0,0
05.07.2020 09:00:00 14,0 8,9 - - 0,0
05.07.2020 08:00:00 14,3 9,8 - - 0,0
05.07.2020 07:00:00 13,8 10,0 - - 0,0
05.07.2020 06:00:00 13,5 10,2 - - 0,0
05.07.2020 05:00:00 13,4 10,1 - - 0,0
05.07.2020 04:00:00 13,7 10,8 - - 0,0
05.07.2020 03:00:00 15,0 13,7 - - 0,4
05.07.2020 02:00:00 15,3 14,4 - - 0,6
05.07.2020 01:00:00 15,4 14,4 - - 1,4
05.07.2020 00:00:00 15,1 14,3 - - 1,0
04.07.2020 23:00:00 13,8 12,8 - - 0,6
04.07.2020 22:00:00 14,0 12,0 - - 0,4
04.07.2020 21:00:00 14,5 11,6 - - 0,2
04.07.2020 20:00:00 15,3 11,0 - - 0,0
04.07.2020 19:00:00 16,0 11,1 - - 0,0
04.07.2020 18:00:00 15,1 10,7 - - 0,0
04.07.2020 17:00:00 16,0 11,0 - - 0,0
04.07.2020 16:00:00 17,1 13,1 - - 0,0
04.07.2020 15:00:00 14,6 11,6 - - 0,0
04.07.2020 14:00:00 14,5 12,6 - - 0,0
04.07.2020 13:00:00 13,4 11,5 - - 0,2
04.07.2020 12:00:00 13,4 10,9 - - 0,2
04.07.2020 11:00:00 13,5 10,2 - - 0,0
04.07.2020 10:00:00 14,2 9,7 15,9 14,2 0,0
04.07.2020 09:00:00 13,4 9,8 - - 0,0
04.07.2020 08:00:00 12,5 9,8 - - 0,0
04.07.2020 07:00:00 11,3 10,4 - - 0,0
04.07.2020 06:00:00 10,1 9,4 - - 0,0
04.07.2020 05:00:00 10,1 9,5 - - 0,0
04.07.2020 04:00:00 9,8 9,1 - - 0,0

tt = temperature
td = dewpoint
tt -20cm = temperature -20cm
tt -100cm = temperature -100cm
rr = precipitation

Next stations